Time;durP1;ratioP1;P1;durP2;ratioP2;P2;SDS_P1;SDS_P2;PMS_P1;PMS_P2;Temp;Humidity;BMP_temperature;BMP_pressure;BME280_temperature;BME280_humidity;BME280_pressure;Samples;Min_cycle;Max_cycle;Signal;HPM_P1;HPM_P2
2021/05/05 00:00:28;;;;;;;5.53;1.23;;;8.00;92.80;;;;;;5002538;28;20053;-86
2021/05/05 00:02:54;;;;;;;3.05;1.10;;;8.00;92.80;;;;;;5018694;28;20033;-86
2021/05/05 00:05:20;;;;;;;4.13;1.17;;;8.00;92.70;;;;;;4984171;28;20390;-86
2021/05/05 00:07:46;;;;;;;4.40;1.30;;;8.00;92.70;;;;;;4984939;28;20030;-86
2021/05/05 00:10:13;;;;;;;5.07;1.30;;;8.00;92.70;;;;;;5000257;28;20026;-85
2021/05/05 00:12:42;;;;;;;6.57;1.40;;;8.00;92.80;;;;;;4983577;28;20116;-85
2021/05/05 00:15:12;;;;;;;3.95;1.30;;;7.90;92.70;;;;;;4978906;28;20387;-86
2021/05/05 00:17:38;;;;;;;5.10;1.23;;;8.00;92.70;;;;;;4998685;28;20025;-85
2021/05/05 00:20:06;;;;;;;5.10;1.25;;;8.00;92.70;;;;;;5015299;28;20026;-86
2021/05/05 00:22:34;;;;;;;5.88;1.20;;;7.90;92.60;;;;;;5014486;28;20123;-86
2021/05/05 00:24:59;;;;;;;3.35;1.05;;;7.90;92.70;;;;;;4997903;28;20053;-85
2021/05/05 00:27:25;;;;;;;2.33;0.93;;;8.00;92.70;;;;;;4997710;28;20055;-85
2021/05/05 00:29:52;;;;;;;6.20;1.48;;;8.00;92.80;;;;;;4984221;28;20060;-85
2021/05/05 00:32:18;;;;;;;6.72;1.45;;;8.00;92.90;;;;;;4997552;28;20018;-86
2021/05/05 00:34:43;;;;;;;6.57;1.35;;;8.00;92.80;;;;;;4997713;28;20532;-86
2021/05/05 00:37:09;;;;;;;8.20;1.45;;;8.00;92.70;;;;;;4981682;28;20026;-86
2021/05/05 00:39:35;;;;;;;7.47;1.52;;;8.00;92.70;;;;;;4981435;28;20058;-85
2021/05/05 00:42:01;;;;;;;5.35;1.60;;;8.00;92.60;;;;;;4972149;28;20034;-85
2021/05/05 00:44:27;;;;;;;5.65;1.38;;;8.00;92.50;;;;;;4982338;28;20030;-85
2021/05/05 00:46:52;;;;;;;6.07;1.67;;;8.00;92.40;;;;;;4988416;28;20037;-88
2021/05/05 00:49:18;;;;;;;9.25;1.63;;;8.00;92.40;;;;;;4959215;28;20034;-86
2021/05/05 00:51:44;;;;;;;7.40;1.85;;;8.00;92.40;;;;;;4981435;28;20030;-87
2021/05/05 00:54:10;;;;;;;8.15;1.63;;;8.00;92.20;;;;;;5014493;28;20466;-87
2021/05/05 00:56:36;;;;;;;8.18;1.77;;;8.00;92.30;;;;;;4982200;28;20049;-86
2021/05/05 00:59:04;;;;;;;5.97;1.60;;;8.00;92.10;;;;;;4997787;28;20025;-85
2021/05/05 01:01:30;;;;;;;6.60;1.98;;;8.00;92.20;;;;;;4997216;28;20029;-87
2021/05/05 01:03:56;;;;;;;7.13;1.90;;;8.00;92.20;;;;;;4977465;28;20033;-87
2021/05/05 01:06:22;;;;;;;5.00;1.70;;;8.00;92.30;;;;;;4970710;28;20064;-87
2021/05/05 01:08:48;;;;;;;8.35;2.58;;;8.00;92.40;;;;;;4981409;28;20026;-87
2021/05/05 01:11:17;;;;;;;4.38;2.20;;;8.00;92.50;;;;;;4996822;28;20033;-86
2021/05/05 01:13:43;;;;;;;6.53;2.33;;;8.00;92.50;;;;;;4977099;28;20035;-86
2021/05/05 01:16:13;;;;;;;6.70;2.00;;;8.00;92.50;;;;;;4966804;28;20048;-87
2021/05/05 01:18:39;;;;;;;4.00;1.98;;;8.00;92.50;;;;;;4979950;28;20160;-86
2021/05/05 01:21:04;;;;;;;7.53;2.13;;;8.00;92.60;;;;;;4991858;28;20026;-86
2021/05/05 01:23:30;;;;;;;5.78;2.20;;;7.90;92.60;;;;;;4971573;28;20386;-87
2021/05/05 01:25:56;;;;;;;4.45;1.65;;;7.90;92.50;;;;;;4981071;28;20052;-87
2021/05/05 01:28:22;;;;;;;6.93;1.88;;;7.90;92.50;;;;;;4980931;28;20038;-86
2021/05/05 01:30:49;;;;;;;7.28;1.95;;;7.90;92.60;;;;;;4996961;28;20050;-91
2021/05/05 01:33:15;;;;;;;6.50;2.03;;;7.90;92.70;;;;;;4997018;28;20056;-87
2021/05/05 01:35:43;;;;;;;5.85;1.90;;;7.80;92.70;;;;;;4980964;28;20116;-88
2021/05/05 01:38:09;;;;;;;5.70;1.60;;;7.80;92.80;;;;;;4999160;28;20029;-86
2021/05/05 01:40:35;;;;;;;5.38;1.42;;;7.80;93.20;;;;;;4990066;28;20051;-86
2021/05/05 01:43:06;;;;;;;5.85;1.60;;;7.80;93.40;;;;;;4996852;28;20033;-86
2021/05/05 01:45:33;;;;;;;4.15;1.63;;;7.70;93.70;;;;;;4997539;28;20048;-88
2021/05/05 01:48:09;;;;;;;3.47;1.25;;;7.70;94.00;;;;;;4993968;28;20027;-86
2021/05/05 01:50:35;;;;;;;5.57;1.17;;;7.60;93.80;;;;;;5015345;28;20018;-86
2021/05/05 01:53:00;;;;;;;5.25;1.10;;;7.60;93.90;;;;;;5016309;28;20010;-87
2021/05/05 01:55:27;;;;;;;4.70;1.70;;;7.50;93.70;;;;;;5002286;28;20071;-89
2021/05/05 01:57:52;;;;;;;5.03;1.40;;;7.50;94.00;;;;;;5019234;28;20026;-90
2021/05/05 02:00:23;;;;;;;5.18;1.70;;;7.40;94.20;;;;;;5028857;28;20028;-89
2021/05/05 02:02:48;;;;;;;7.25;1.38;;;7.40;94.00;;;;;;5014613;28;20026;-87
2021/05/05 02:05:14;;;;;;;6.20;1.20;;;7.30;94.00;;;;;;5013111;28;20030;-87
2021/05/05 02:07:40;;;;;;;5.55;1.30;;;7.30;94.10;;;;;;4989975;28;20030;-90
2021/05/05 02:10:09;;;;;;;6.72;1.52;;;7.30;94.20;;;;;;4997088;28;20064;-87
2021/05/05 02:12:35;;;;;;;8.73;1.50;;;7.20;94.20;;;;;;4999973;28;20018;-86
2021/05/05 02:15:02;;;;;;;4.68;1.30;;;7.20;94.60;;;;;;5000900;28;20080;-87
2021/05/05 02:17:28;;;;;;;5.28;1.20;;;7.20;94.40;;;;;;4997119;28;20038;-88
2021/05/05 02:19:54;;;;;;;7.43;1.88;;;7.20;94.50;;;;;;4996932;28;20045;-88
2021/05/05 02:22:19;;;;;;;7.47;1.70;;;7.10;94.60;;;;;;4980841;28;20041;-87
2021/05/05 02:24:45;;;;;;;4.25;1.20;;;7.10;94.80;;;;;;4997350;28;20163;-87
2021/05/05 02:27:11;;;;;;;10.05;1.58;;;7.10;94.70;;;;;;5013582;28;20037;-87
2021/05/05 02:29:40;;;;;;;8.90;2.38;;;7.10;94.70;;;;;;4996876;28;20521;-87
2021/05/05 02:32:10;;;;;;;7.80;1.70;;;7.10;95.30;;;;;;4977754;28;20046;-86
2021/05/05 02:34:37;;;;;;;6.40;1.42;;;7.10;95.20;;;;;;4977840;28;20023;-87
2021/05/05 02:37:05;;;;;;;8.52;1.45;;;7.10;95.20;;;;;;4961508;28;20038;-88
2021/05/05 02:39:34;;;;;;;8.05;1.50;;;7.10;95.20;;;;;;4997050;28;20598;-88
2021/05/05 02:42:00;;;;;;;7.53;1.52;;;7.10;95.20;;;;;;4998286;28;20026;-88
2021/05/05 02:44:29;;;;;;;5.97;1.67;;;7.10;95.60;;;;;;4980759;28;20018;-87
2021/05/05 02:46:54;;;;;;;6.63;1.15;;;7.10;95.30;;;;;;4997291;28;20022;-87
2021/05/05 02:49:20;;;;;;;4.65;1.55;;;7.10;95.30;;;;;;4997063;28;20048;-89
2021/05/05 02:51:45;;;;;;;6.35;1.58;;;7.10;95.40;;;;;;4997063;28;20052;-87
2021/05/05 02:54:14;;;;;;;4.90;1.40;;;7.10;95.30;;;;;;4997054;28;20025;-87
2021/05/05 02:56:40;;;;;;;7.60;2.17;;;7.00;95.20;;;;;;4980734;28;20034;-87
2021/05/05 02:59:06;;;;;;;7.22;1.77;;;7.00;95.20;;;;;;4996821;28;20049;-87
2021/05/05 03:01:34;;;;;;;7.10;1.95;;;7.00;95.60;;;;;;4982858;28;20485;-87
2021/05/05 03:04:00;;;;;;;7.38;2.03;;;7.00;95.30;;;;;;4983884;28;20474;-87
2021/05/05 03:06:25;;;;;;;8.60;2.22;;;7.00;95.30;;;;;;4983702;28;20018;-87
2021/05/05 03:08:51;;;;;;;8.52;2.33;;;7.00;95.30;;;;;;4983717;28;20026;-86
2021/05/05 03:11:17;;;;;;;8.13;1.80;;;6.90;95.20;;;;;;4999807;28;20076;-87
2021/05/05 03:13:42;;;;;;;7.32;1.73;;;6.90;95.30;;;;;;4998640;28;21271;-86
2021/05/05 03:16:08;;;;;;;5.32;1.70;;;6.90;95.40;;;;;;4981551;28;20034;-87
2021/05/05 03:18:34;;;;;;;9.43;1.90;;;6.90;95.40;;;;;;4998981;28;20034;-87
2021/05/05 03:21:00;;;;;;;8.07;2.00;;;6.90;95.40;;;;;;4983370;28;20037;-87
2021/05/05 03:23:27;;;;;;;6.05;1.90;;;6.90;95.50;;;;;;4984539;28;20028;-87
2021/05/05 03:25:53;;;;;;;9.55;2.20;;;6.90;95.50;;;;;;4981321;28;20119;-87
2021/05/05 03:28:18;;;;;;;9.60;2.28;;;6.90;95.50;;;;;;4969580;28;20029;-87
2021/05/05 03:30:44;;;;;;;9.73;2.65;;;6.90;95.60;;;;;;4992436;28;20050;-89
2021/05/05 03:33:10;;;;;;;6.60;2.22;;;6.90;95.60;;;;;;4998470;28;20044;-89
2021/05/05 03:35:36;;;;;;;5.85;2.40;;;6.90;95.70;;;;;;4997179;28;20735;-88
2021/05/05 03:38:02;;;;;;;12.15;2.83;;;6.90;95.80;;;;;;4961368;28;20038;-89
2021/05/05 03:40:29;;;;;;;6.88;2.35;;;6.90;95.80;;;;;;4996848;28;20061;-88
2021/05/05 03:42:55;;;;;;;8.75;2.97;;;6.90;95.90;;;;;;4998198;28;20116;-87
2021/05/05 03:45:21;;;;;;;11.20;2.72;;;6.80;95.90;;;;;;4979014;28;20080;-87
2021/05/05 03:47:47;;;;;;;7.10;2.65;;;6.80;95.90;;;;;;4962717;28;20038;-87
2021/05/05 03:50:13;;;;;;;6.78;2.70;;;6.80;95.90;;;;;;4994008;28;20164;-87
2021/05/05 03:52:39;;;;;;;8.93;2.70;;;6.80;96.00;;;;;;4982271;28;20546;-87
2021/05/05 03:55:07;;;;;;;9.73;2.70;;;6.80;96.00;;;;;;4982101;28;20117;-87
2021/05/05 03:57:35;;;;;;;5.63;2.90;;;6.80;96.00;;;;;;4994975;28;20057;-87
2021/05/05 04:00:00;;;;;;;9.40;2.70;;;6.80;96.00;;;;;;4982785;28;20124;-87
2021/05/05 04:02:26;;;;;;;11.95;3.15;;;6.80;96.40;;;;;;4998651;28;20446;-89
2021/05/05 04:04:52;;;;;;;8.85;3.00;;;6.80;96.10;;;;;;4982191;28;20116;-87
2021/05/05 04:07:18;;;;;;;9.27;2.50;;;6.80;96.10;;;;;;4999956;28;20120;-86
2021/05/05 04:09:44;;;;;;;11.85;2.83;;;6.80;96.10;;;;;;5009989;28;20140;-87
2021/05/05 04:12:11;;;;;;;10.93;2.55;;;6.80;96.20;;;;;;4997695;28;20466;-89
2021/05/05 04:14:37;;;;;;;8.65;2.30;;;6.80;96.10;;;;;;4997747;28;20030;-87
2021/05/05 04:17:03;;;;;;;10.38;3.15;;;6.80;96.10;;;;;;4986403;28;20089;-86
2021/05/05 04:19:28;;;;;;;7.47;2.55;;;6.80;96.20;;;;;;4946581;28;20080;-93
2021/05/05 04:21:54;;;;;;;8.23;2.30;;;6.80;96.10;;;;;;4979993;28;20030;-87
2021/05/05 04:24:20;;;;;;;8.10;2.50;;;6.80;96.20;;;;;;4982868;28;20054;-87
2021/05/05 04:26:48;;;;;;;8.55;2.35;;;6.80;96.20;;;;;;4981977;28;20061;-87
2021/05/05 04:29:14;;;;;;;8.50;2.22;;;6.80;96.20;;;;;;4998118;28;20026;-86
2021/05/05 04:31:40;;;;;;;10.27;2.50;;;6.80;96.20;;;;;;4980633;28;20494;-88
2021/05/05 04:34:06;;;;;;;10.73;3.17;;;6.80;96.10;;;;;;4981221;28;20022;-87
2021/05/05 04:36:32;;;;;;;9.63;2.15;;;6.80;96.10;;;;;;4980997;28;20505;-87
2021/05/05 04:38:58;;;;;;;8.45;2.42;;;6.80;96.20;;;;;;4994987;28;20026;-86
2021/05/05 04:41:23;;;;;;;10.13;2.60;;;6.80;96.20;;;;;;4997388;28;20021;-88
2021/05/05 04:43:49;;;;;;;14.15;3.03;;;6.80;96.20;;;;;;4963688;28;20034;-87
2021/05/05 04:46:15;;;;;;;14.93;2.60;;;6.90;96.30;;;;;;4997524;28;20053;-89
2021/05/05 04:48:41;;;;;;;13.13;3.08;;;6.90;96.30;;;;;;4997070;28;20038;-88
2021/05/05 04:51:07;;;;;;;10.27;2.60;;;6.80;96.20;;;;;;4997119;28;20044;-87
2021/05/05 04:53:33;;;;;;;10.93;2.63;;;6.80;96.20;;;;;;4977829;28;20030;-87
2021/05/05 04:55:59;;;;;;;7.85;2.35;;;6.80;96.20;;;;;;4995263;28;20481;-87
2021/05/05 04:58:24;;;;;;;7.68;2.60;;;6.80;96.20;;;;;;5014580;28;20022;-88
2021/05/05 05:00:50;;;;;;;8.25;3.60;;;6.80;96.20;;;;;;4980946;28;20092;-88
2021/05/05 05:03:16;;;;;;;8.90;2.55;;;6.80;96.30;;;;;;4977627;28;20030;-87
2021/05/05 05:05:42;;;;;;;9.07;2.75;;;6.80;96.30;;;;;;4990960;28;20034;-89
2021/05/05 05:08:07;;;;;;;6.07;2.50;;;6.80;96.20;;;;;;4980721;28;20038;-88
2021/05/05 05:10:33;;;;;;;11.35;2.97;;;6.80;96.30;;;;;;4979989;28;20025;-87
2021/05/05 05:13:00;;;;;;;12.77;3.75;;;6.80;96.30;;;;;;4996332;28;20026;-88
2021/05/05 05:15:26;;;;;;;7.20;2.75;;;6.80;96.20;;;;;;5014384;28;20114;-89
2021/05/05 05:17:52;;;;;;;6.53;2.47;;;6.80;96.20;;;;;;4993694;28;20031;-87
2021/05/05 05:20:18;;;;;;;9.52;2.70;;;6.70;96.20;;;;;;4988123;28;20037;-88
2021/05/05 05:22:44;;;;;;;6.85;2.47;;;6.80;96.40;;;;;;4996397;28;20029;-88
2021/05/05 05:25:11;;;;;;;7.78;2.47;;;6.80;96.60;;;;;;4980327;28;20033;-89
2021/05/05 05:27:38;;;;;;;10.52;3.00;;;6.80;96.50;;;;;;4996443;28;20081;-88
2021/05/05 05:30:05;;;;;;;8.85;2.50;;;6.80;96.40;;;;;;4997027;28;20443;-87
2021/05/05 05:32:31;;;;;;;8.45;2.25;;;6.70;96.50;;;;;;4980940;28;20050;-88
2021/05/05 05:34:57;;;;;;;9.43;2.47;;;6.80;96.40;;;;;;5010686;28;20054;-89
2021/05/05 05:37:23;;;;;;;10.73;2.78;;;6.70;96.40;;;;;;5023031;28;20034;-90
2021/05/05 05:39:48;;;;;;;8.10;2.55;;;6.80;96.40;;;;;;5015074;28;20017;-95
2021/05/05 05:42:14;;;;;;;7.20;2.30;;;6.70;96.40;;;;;;5002665;28;20021;-89
2021/05/05 05:44:42;;;;;;;6.68;2.10;;;6.70;96.40;;;;;;4999605;28;20037;-91
2021/05/05 05:47:11;;;;;;;5.15;2.08;;;6.70;96.40;;;;;;5015269;28;20018;-90
2021/05/05 05:49:36;;;;;;;6.05;2.13;;;6.70;96.30;;;;;;5000171;28;20031;-94
2021/05/05 05:52:02;;;;;;;5.63;2.00;;;6.80;96.30;;;;;;5017390;28;20037;-89
2021/05/05 05:54:28;;;;;;;6.82;2.03;;;6.80;96.40;;;;;;5000165;28;20121;-87
2021/05/05 05:56:57;;;;;;;7.30;2.25;;;6.80;96.30;;;;;;5000231;28;20462;-89
2021/05/05 05:59:23;;;;;;;7.18;2.33;;;6.80;96.30;;;;;;4997441;28;20029;-88
2021/05/05 06:01:48;;;;;;;7.30;2.00;;;6.80;96.50;;;;;;4997278;28;20387;-87
2021/05/05 06:04:16;;;;;;;5.18;2.30;;;6.90;96.30;;;;;;4996860;28;20049;-88
2021/05/05 06:06:42;;;;;;;6.80;2.85;;;6.90;96.40;;;;;;4982036;28;20072;-89
2021/05/05 06:09:08;;;;;;;8.32;2.88;;;7.00;96.40;;;;;;4997562;28;20069;-87
2021/05/05 06:11:37;;;;;;;7.95;2.90;;;7.00;96.30;;;;;;4997474;28;20382;-87
2021/05/05 06:14:04;;;;;;;8.32;3.45;;;7.00;96.30;;;;;;4983039;28;20038;-86
2021/05/05 06:16:30;;;;;;;5.70;2.40;;;7.10;96.10;;;;;;4997962;28;20560;-87
2021/05/05 06:18:56;;;;;;;8.98;2.67;;;7.10;96.10;;;;;;5016998;28;20482;-87
2021/05/05 06:21:24;;;;;;;8.27;2.20;;;7.20;96.10;;;;;;5002743;28;20022;-87
2021/05/05 06:23:50;;;;;;;6.07;2.28;;;7.20;96.00;;;;;;4997483;28;20032;-87
2021/05/05 06:26:16;;;;;;;6.53;2.20;;;7.20;95.70;;;;;;4980042;28;20483;-86
2021/05/05 06:28:42;;;;;;;12.25;2.25;;;7.30;95.60;;;;;;4980465;28;20038;-85
2021/05/05 06:31:08;;;;;;;8.10;2.10;;;7.30;95.30;;;;;;4975517;28;20061;-87
2021/05/05 06:33:34;;;;;;;7.85;1.90;;;7.30;95.50;;;;;;4990925;28;20038;-87
2021/05/05 06:35:59;;;;;;;10.23;2.78;;;7.30;95.60;;;;;;4984203;28;20073;-88
2021/05/05 06:38:28;;;;;;;6.60;1.90;;;7.30;95.40;;;;;;4998741;28;20023;-89
2021/05/05 06:40:54;;;;;;;9.82;2.25;;;7.40;95.40;;;;;;4996517;28;20061;-87
2021/05/05 06:43:20;;;;;;;11.43;2.60;;;7.40;95.10;;;;;;5011104;28;20030;-87
2021/05/05 06:45:46;;;;;;;9.40;2.15;;;7.40;95.10;;;;;;5003019;28;20030;-87
2021/05/05 06:48:15;;;;;;;10.60;2.28;;;7.50;95.20;;;;;;5012937;28;20029;-86
2021/05/05 06:50:41;;;;;;;6.20;1.85;;;7.50;95.10;;;;;;4999519;28;20056;-87
2021/05/05 06:53:07;;;;;;;11.73;2.08;;;7.60;95.40;;;;;;4990318;28;20094;-86
2021/05/05 06:55:32;;;;;;;7.35;2.00;;;7.70;95.40;;;;;;5000772;28;20026;-87
2021/05/05 06:57:59;;;;;;;6.47;1.55;;;7.70;95.00;;;;;;4999232;28;20461;-87
2021/05/05 07:00:29;;;;;;;8.88;1.85;;;7.80;94.70;;;;;;5003496;28;20022;-87
2021/05/05 07:02:55;;;;;;;5.63;1.73;;;7.80;94.80;;;;;;4974613;28;20025;-87
2021/05/05 07:05:20;;;;;;;8.00;1.65;;;7.80;94.80;;;;;;5002728;28;20026;-87
2021/05/05 07:07:46;;;;;;;8.50;1.85;;;7.80;94.80;;;;;;5004445;28;20381;-88
2021/05/05 07:10:13;;;;;;;6.55;1.60;;;7.80;94.80;;;;;;5004420;28;20026;-88
2021/05/05 07:12:39;;;;;;;8.00;1.92;;;7.80;94.70;;;;;;5006754;28;20034;-87
2021/05/05 07:15:06;;;;;;;6.57;2.15;;;7.80;94.60;;;;;;4999976;28;20026;-86
2021/05/05 07:17:32;;;;;;;8.02;2.15;;;7.80;94.70;;;;;;4983698;28;20030;-89
2021/05/05 07:19:58;;;;;;;12.95;2.50;;;7.90;94.80;;;;;;4999548;28;20072;-88
2021/05/05 07:22:24;;;;;;;6.72;2.00;;;7.90;93.60;;;;;;4984111;28;20022;-89
2021/05/05 07:24:50;;;;;;;7.95;1.70;;;7.90;94.10;;;;;;5011343;28;20018;-89
2021/05/05 07:27:16;;;;;;;8.57;2.03;;;7.90;94.50;;;;;;4999033;28;20037;-89
2021/05/05 07:29:42;;;;;;;8.50;2.15;;;8.00;94.40;;;;;;4987496;28;20056;-88
2021/05/05 07:32:08;;;;;;;10.52;3.20;;;8.00;94.00;;;;;;5002287;28;20054;-89
2021/05/05 07:34:35;;;;;;;10.18;1.98;;;8.10;93.90;;;;;;4971649;28;20487;-87
2021/05/05 07:37:19;;;;;;;7.00;2.08;;;8.10;93.90;;;;;;4980917;28;20040;-88
2021/05/05 07:47:34;;;;;;;7.78;2.38;;;8.30;93.70;;;;;;4990996;28;20023;-89
2021/05/05 07:50:03;;;;;;;11.88;2.75;;;8.40;93.50;;;;;;4953675;28;20026;-86
2021/05/05 07:52:29;;;;;;;10.93;2.22;;;8.50;93.20;;;;;;4994779;28;20030;-89
2021/05/05 07:54:56;;;;;;;8.63;2.15;;;8.60;93.30;;;;;;4964317;28;20037;-85
2021/05/05 07:57:22;;;;;;;9.30;2.33;;;8.70;93.20;;;;;;5000239;28;20071;-85
2021/05/05 07:59:48;;;;;;;7.72;1.83;;;8.80;92.80;;;;;;4990745;28;20522;-86
2021/05/05 08:02:14;;;;;;;6.88;2.00;;;8.90;92.90;;;;;;4997790;28;20113;-85
2021/05/05 08:04:48;;;;;;;7.70;1.92;;;8.90;93.30;;;;;;4960625;28;20029;-86
2021/05/05 08:07:15;;;;;;;11.05;2.13;;;9.10;93.10;;;;;;4966877;28;20155;-86
2021/05/05 08:09:41;;;;;;;10.20;2.45;;;9.20;92.50;;;;;;4987267;28;20090;-85
2021/05/05 08:12:07;;;;;;;7.15;1.48;;;9.30;92.50;;;;;;4984302;28;20069;-87
2021/05/05 08:14:33;;;;;;;5.10;1.30;;;9.30;92.20;;;;;;4984464;28;20034;-88
2021/05/05 08:16:58;;;;;;;10.88;1.95;;;9.30;91.70;;;;;;4983393;28;20101;-88
2021/05/05 08:19:24;;;;;;;7.55;1.75;;;9.30;91.40;;;;;;4983650;28;20007;-93
2021/05/05 08:21:51;;;;;;;8.18;1.65;;;9.20;91.90;;;;;;5018173;28;20086;-93
2021/05/05 08:24:16;;;;;;;4.47;1.17;;;9.20;92.20;;;;;;5018400;28;20014;-96
2021/05/05 08:26:45;;;;;;;5.22;1.45;;;9.20;92.20;;;;;;4981594;28;20053;-91
2021/05/05 08:29:12;;;;;;;3.97;1.10;;;9.20;92.30;;;;;;4998582;28;20015;-89
2021/05/05 08:31:37;;;;;;;4.85;1.20;;;9.20;92.10;;;;;;4988128;28;20042;-89
2021/05/05 08:34:03;;;;;;;8.85;1.75;;;9.20;91.70;;;;;;4997829;28;20033;-89
2021/05/05 08:36:29;;;;;;;5.38;1.35;;;9.20;91.80;;;;;;4997739;28;20125;-90
2021/05/05 08:38:56;;;;;;;7.47;1.35;;;9.30;91.90;;;;;;4980009;28;20072;-90
2021/05/05 08:41:21;;;;;;;9.40;1.35;;;9.40;91.50;;;;;;5015453;28;20025;-86
2021/05/05 08:43:47;;;;;;;4.15;1.40;;;9.40;90.70;;;;;;4998033;28;20030;-92
2021/05/05 08:46:17;;;;;;;6.07;1.40;;;9.40;89.60;;;;;;4997105;28;20176;-88
2021/05/05 08:48:48;;;;;;;6.57;1.40;;;9.40;90.50;;;;;;4998115;28;20030;-88
2021/05/05 08:51:14;;;;;;;5.40;1.27;;;9.50;89.80;;;;;;4997910;28;20419;-86
2021/05/05 08:53:41;;;;;;;5.47;1.20;;;9.50;89.70;;;;;;4998540;28;20064;-88
2021/05/05 08:56:08;;;;;;;4.53;1.02;;;9.50;90.80;;;;;;4976601;28;20382;-87
2021/05/05 08:58:34;;;;;;;4.18;1.15;;;9.60;90.50;;;;;;4990370;28;20030;-86
2021/05/05 09:01:00;;;;;;;6.97;1.60;;;9.70;90.50;;;;;;4997422;28;20168;-86
2021/05/05 09:03:41;;;;;;;5.97;1.45;;;9.80;89.30;;;;;;4978925;28;20023;-85
2021/05/05 09:06:07;;;;;;;9.05;1.85;;;9.90;88.90;;;;;;4999188;28;20030;-87
2021/05/05 09:08:34;;;;;;;6.70;1.73;;;10.00;89.20;;;;;;4997174;28;20033;-86
2021/05/05 09:11:06;;;;;;;7.22;2.20;;;10.00;90.30;;;;;;4981889;28;20030;-86
2021/05/05 09:13:54;;;;;;;10.38;2.38;;;10.10;89.40;;;;;;4985150;28;20030;-87
2021/05/05 09:16:24;;;;;;;7.63;1.90;;;10.00;90.30;;;;;;4979020;28;20479;-86
2021/05/05 09:19:02;;;;;;;9.32;1.40;;;10.00;90.60;;;;;;4995324;28;20041;-89
2021/05/05 09:21:31;;;;;;;7.10;1.65;;;10.00;90.90;;;;;;5005943;28;20024;-87
2021/05/05 09:24:20;;;;;;;4.35;1.23;;;10.00;90.80;;;;;;5012678;28;20027;-89
2021/05/05 09:26:49;;;;;;;10.43;1.92;;;10.10;90.60;;;;;;5023435;28;20006;-87
2021/05/05 09:29:15;;;;;;;9.43;1.75;;;10.10;91.40;;;;;;5037789;28;20026;-88
2021/05/05 09:31:42;;;;;;;7.18;1.77;;;10.30;91.10;;;;;;5017931;28;20022;-93
2021/05/05 09:34:12;;;;;;;9.15;1.70;;;10.30;90.60;;;;;;4999710;28;20029;-88
2021/05/05 09:37:02;;;;;;;8.38;1.70;;;10.30;90.40;;;;;;5016415;28;20073;-89
2021/05/05 09:39:31;;;;;;;7.50;1.90;;;10.30;90.30;;;;;;5002560;28;20025;-87
2021/05/05 09:41:57;;;;;;;7.28;1.50;;;10.20;90.30;;;;;;4999093;28;20022;-87
2021/05/05 09:44:23;;;;;;;9.00;1.92;;;10.20;86.70;;;;;;4983094;28;20026;-86
2021/05/05 09:46:52;;;;;;;7.95;1.60;;;10.20;87.40;;;;;;4978417;28;20382;-87
2021/05/05 09:49:35;;;;;;;7.32;1.73;;;10.20;88.90;;;;;;4991584;28;20167;-87
2021/05/05 09:52:06;;;;;;;4.78;1.40;;;10.30;88.30;;;;;;4993807;28;20129;-87
2021/05/05 09:54:35;;;;;;;7.68;1.65;;;10.30;88.30;;;;;;4996676;28;20528;-89
2021/05/05 09:57:30;;;;;;;7.00;1.63;;;10.40;88.20;;;;;;4995853;28;20037;-88
2021/05/05 10:00:10;;;;;;;5.90;1.50;;;10.50;84.90;;;;;;4999593;28;20072;-89
2021/05/05 10:02:46;;;;;;;4.47;1.10;;;10.50;84.70;;;;;;4980434;28;20475;-87
2021/05/05 10:05:27;;;;;;;3.85;1.13;;;10.60;86.40;;;;;;4995898;28;20025;-86
2021/05/05 10:07:58;;;;;;;6.63;1.55;;;10.70;86.00;;;;;;4996264;28;20030;-87
2021/05/05 10:10:31;;;;;;;5.75;1.58;;;10.80;85.60;;;;;;5013801;28;20027;-86
2021/05/05 10:12:59;;;;;;;4.47;1.35;;;10.90;83.40;;;;;;5014127;28;20076;-86
2021/05/05 10:15:27;;;;;;;6.90;1.30;;;10.90;84.40;;;;;;4996564;28;20528;-87
2021/05/05 10:17:54;;;;;;;10.35;2.33;;;10.90;84.60;;;;;;4977598;28;20022;-88
2021/05/05 10:20:26;;;;;;;7.10;1.38;;;11.00;83.20;;;;;;4992925;28;20108;-86
2021/05/05 10:22:54;;;;;;;3.15;1.17;;;11.00;83.00;;;;;;5005969;28;20026;-83
2021/05/05 10:25:22;;;;;;;6.07;1.60;;;11.10;83.20;;;;;;4996147;28;20053;-86
2021/05/05 10:27:50;;;;;;;5.85;1.20;;;11.10;85.20;;;;;;4996667;28;20032;-85
2021/05/05 10:30:18;;;;;;;4.55;1.02;;;11.10;83.90;;;;;;5014456;28;20083;-85
2021/05/05 10:32:46;;;;;;;9.00;1.92;;;11.10;84.00;;;;;;4995678;28;20054;-83
2021/05/05 10:35:17;;;;;;;8.40;2.33;;;11.10;84.80;;;;;;4995368;28;20030;-85
2021/05/05 10:37:49;;;;;;;8.25;1.75;;;11.10;84.80;;;;;;4995890;28;20058;-85
2021/05/05 10:40:18;;;;;;;4.80;1.08;;;11.10;85.20;;;;;;4998313;28;20462;-86
2021/05/05 10:42:58;;;;;;;9.35;2.10;;;11.10;85.00;;;;;;5013889;28;20458;-88
2021/05/05 10:45:34;;;;;;;9.88;1.80;;;11.20;85.60;;;;;;4986389;28;20033;-87
2021/05/05 10:48:12;;;;;;;8.05;1.58;;;11.40;84.50;;;;;;4994351;28;20481;-85
2021/05/05 10:50:52;;;;;;;8.40;1.83;;;11.50;84.80;;;;;;4990970;28;20030;-85
2021/05/05 10:53:22;;;;;;;11.52;2.53;;;11.60;83.70;;;;;;4991736;28;20046;-85
2021/05/05 10:55:59;;;;;;;7.53;1.65;;;11.70;85.00;;;;;;4995420;28;20421;-84
2021/05/05 10:58:26;;;;;;;10.38;2.45;;;11.80;84.30;;;;;;5008319;28;20030;-85
2021/05/05 11:00:53;;;;;;;7.38;2.13;;;11.90;82.10;;;;;;4995067;28;20081;-86
2021/05/05 11:03:42;;;;;;;13.70;2.30;;;11.90;82.40;;;;;;4995022;28;20112;-86
2021/05/05 11:06:36;;;;;;;9.68;1.92;;;12.10;81.20;;;;;;5012603;28;20162;-86
2021/05/05 11:09:11;;;;;;;8.57;1.92;;;12.10;80.00;;;;;;4990474;28;20048;-85
2021/05/05 11:11:41;;;;;;;8.05;2.03;;;12.10;81.60;;;;;;5012299;28;20026;-86
2021/05/05 11:14:07;;;;;;;5.93;1.38;;;12.20;80.80;;;;;;4994772;28;20032;-85
2021/05/05 11:16:52;;;;;;;8.73;1.85;;;12.20;81.40;;;;;;4977920;28;20097;-85
2021/05/05 11:19:38;;;;;;;6.00;1.58;;;12.20;79.20;;;;;;4994819;28;20434;-85
2021/05/05 11:22:08;;;;;;;7.13;1.65;;;12.30;80.20;;;;;;5017249;28;20014;-86
2021/05/05 11:24:36;;;;;;;9.85;1.75;;;12.40;80.10;;;;;;4997908;28;20034;-87
2021/05/05 11:27:08;;;;;;;5.78;1.55;;;12.40;78.20;;;;;;4997729;28;20022;-87
2021/05/05 11:29:40;;;;;;;11.23;1.90;;;12.50;78.70;;;;;;4998210;28;20057;-85
2021/05/05 11:32:24;;;;;;;7.78;2.03;;;12.50;76.30;;;;;;5014993;28;20056;-85
2021/05/05 11:34:51;;;;;;;8.10;2.22;;;12.50;77.60;;;;;;4996207;28;20065;-86
2021/05/05 11:37:22;;;;;;;9.88;2.58;;;12.40;78.60;;;;;;4995163;28;20550;-87
2021/05/05 11:40:18;;;;;;;9.80;2.25;;;12.40;79.90;;;;;;5008697;28;20386;-85
2021/05/05 11:42:44;;;;;;;8.57;1.70;;;12.50;77.90;;;;;;4985166;28;20050;-84
2021/05/05 11:45:13;;;;;;;14.15;2.63;;;12.60;77.20;;;;;;4980938;28;20027;-85
2021/05/05 11:47:48;;;;;;;9.48;2.15;;;12.70;73.70;;;;;;4961914;28;20026;-84
2021/05/05 11:50:25;;;;;;;8.70;2.20;;;12.80;74.10;;;;;;4985218;28;20510;-86
2021/05/05 11:52:54;;;;;;;9.13;2.03;;;12.90;72.10;;;;;;5013651;28;20022;-86
2021/05/05 11:55:30;;;;;;;11.05;2.40;;;12.90;73.00;;;;;;4980462;28;20476;-86
2021/05/05 11:57:59;;;;;;;7.90;2.35;;;12.90;75.10;;;;;;4996770;28;20117;-87
2021/05/05 12:00:34;;;;;;;8.07;1.80;;;13.00;75.00;;;;;;4998263;28;20092;-86
2021/05/05 12:03:02;;;;;;;10.80;2.50;;;13.10;75.60;;;;;;4996945;28;20371;-86
2021/05/05 12:05:33;;;;;;;9.27;2.40;;;13.10;72.00;;;;;;4979466;28;20085;-87
2021/05/05 12:08:12;;;;;;;7.07;1.75;;;13.00;74.70;;;;;;5014548;28;20034;-86
2021/05/05 12:10:48;;;;;;;9.23;2.25;;;12.90;77.60;;;;;;4995447;28;20116;-86
2021/05/05 12:13:15;;;;;;;9.13;2.55;;;12.60;80.40;;;;;;5003835;28;20033;-85
2021/05/05 12:16:09;;;;;;;7.75;1.98;;;12.40;82.00;;;;;;4996360;28;20026;-89
2021/05/05 12:18:45;;;;;;;9.10;2.38;;;12.20;81.10;;;;;;5013553;28;20025;-87
2021/05/05 12:21:16;;;;;;;9.32;2.20;;;12.00;83.80;;;;;;5014705;28;20048;-85
2021/05/05 12:23:45;;;;;;;12.43;2.55;;;12.00;84.60;;;;;;4997139;28;20037;-86
2021/05/05 12:26:19;;;;;;;8.15;1.95;;;12.00;87.50;;;;;;4996837;28;20045;-85
2021/05/05 12:28:46;;;;;;;12.45;2.50;;;12.00;84.80;;;;;;4996437;28;20062;-85
2021/05/05 12:31:14;;;;;;;11.90;2.60;;;12.10;83.30;;;;;;5013925;28;20100;-85
2021/05/05 12:33:42;;;;;;;16.10;2.50;;;12.20;83.80;;;;;;4995118;28;20052;-86
2021/05/05 12:36:09;;;;;;;10.10;2.42;;;12.20;81.90;;;;;;4999007;28;20115;-88
2021/05/05 12:38:38;;;;;;;8.75;2.47;;;12.30;79.10;;;;;;5013556;28;20060;-85
2021/05/05 12:41:11;;;;;;;16.10;3.05;;;12.30;79.50;;;;;;4996518;28;20018;-85
2021/05/05 12:43:37;;;;;;;10.43;2.10;;;12.30;77.90;;;;;;4996420;28;20065;-85
2021/05/05 12:46:04;;;;;;;10.68;2.22;;;12.30;78.70;;;;;;4964384;28;20030;-85
2021/05/05 12:48:39;;;;;;;8.05;1.63;;;12.30;77.50;;;;;;4997870;28;20081;-86
2021/05/05 12:51:08;;;;;;;11.50;2.03;;;12.30;80.40;;;;;;5014370;28;20030;-85
2021/05/05 12:53:53;;;;;;;11.77;2.83;;;12.10;82.50;;;;;;5014155;28;20041;-86
2021/05/05 12:56:21;;;;;;;9.40;2.08;;;11.90;86.40;;;;;;4996544;28;20548;-85
2021/05/05 12:58:48;;;;;;;9.77;2.75;;;11.90;87.40;;;;;;4978025;28;20121;-85
2021/05/05 13:01:15;;;;;;;16.08;2.55;;;12.00;90.50;;;;;;4979611;28;20030;-85
2021/05/05 13:03:46;;;;;;;7.13;2.08;;;12.10;89.00;;;;;;4983500;28;20037;-86
2021/05/05 13:06:14;;;;;;;7.90;1.90;;;12.10;86.60;;;;;;5014322;28;20026;-87